Bell Canyon, California
Current Conditions -  °F | °C
As of 11:51 PM on Wednesday 28 Jan 2015 (Local Time) from KVNY Reporting Station
Clear Clear  
Wind Chill: 65°   Ceiling: Unl
Heat Index: 65°   Visibility: 10mi
Dew Point: 44°   Wind: 13mph
Humidity: 47%   Direction: 360°N
Pressure: 30.07"   Gusts: NA
Location:  34.2068°N, 118.679°W
Report Text: KVNY 290751Z AUTO 36011KT 10SM CLR 18/07 A3007 RMK AO2 SLP176 T01830067 402220106
Loading
Personal Weather Stations






























Interactive Weather Map New forecast layout! Learn more

10-Day Weather Forecast

Advertisements
Track Severe Weather on mobile